Aérodrome :
LOGIN :

S'inscrire | Disclaimer

   EN    FR    IT 

 










Légende :    VFR   VFR Marginal   IFR   IFR Intensif   IFR Très Intensif
Visi : 
Plafond : 
>= 8 km
>= 3000ft
5 à 8 km
1000 à 3000 ft
1500m à 5 km
500 à 1000 ft
800 à 1500m
200 à 500 ft
< 800m
< 200 ft
Symboles :   Orages  Brouillard  Fortes neiges  Fortes précipitations  Vent > 20 kt
SIGMETs :   Divers  Orages  Givrage  Turbulence  Onde Orograph.  Cendres Volcan.






- Altitude de l'aérodrome : 256 ft
- Code IATA : KUN


EYKA - Kaunas

DERNIER METAR :
  • 300650Z 36007KT 330V060 CAVOK M01/M11 Q1020 R08/290095

METARs EXPIRÉS :
  • 300620Z 36007KT 310V050 CAVOK M02/M10 Q1019 R08/290095
  • 300550Z 33006KT 300V010 CAVOK M03/M10 Q1019 R08/290095
  • 300520Z 34004KT 300V020 CAVOK M04/M10 Q1019 R08/290095
  • 300450Z 33005KT 300V360 CAVOK M05/M11 Q1019 R08/290095
  • 300420Z 34005KT 310V010 CAVOK M05/M12 Q1019 R08/290095

TAF TAF EYKA
Valide du 30 à 06h jusqu'au 31 à 06h UTC


300500Z 3006/3106 35010KT 9000 NSC
BECMG 3015/3016 SCT030
BECMG 3018/3019 BKN025
TEMPO 3019/3103 0800 +SHSN BKN005 BKN015CB



MET'MAP, la Météo Aéronautique d'un coup d'oeil ! - Copyright ORBIFLY Décembre 2007 - Disclaimer

ORBIFLY MET'MAP TEAM :

Programmation & Développement : Alexandra Zaïnal
Sur une idée originale de : Baudouin d'Aumeries
Assistance à la programmation : Marc-Olivier Méhu
Soutien technique & logistique : Manuel Goepfert

Contact : metmap@orbifly.com




SOURCES & CREDITS :

   NOAA